createdAt,value
2018-12-12T00:09:58.931Z,6
2018-12-12T00:20:05.833Z,5
2018-12-12T00:30:11.993Z,4
2018-12-12T00:40:18.126Z,3
2018-12-12T00:50:26.560Z,3
2018-12-12T01:00:33.891Z,5
2018-12-12T01:10:42.064Z,4
2018-12-12T01:20:50.266Z,4
2018-12-12T06:39:50.770Z,2
2018-12-12T06:49:58.402Z,7
2018-12-12T07:00:06.188Z,4
2018-12-12T07:10:10.768Z,5
2018-12-12T07:20:17.905Z,3
2018-12-12T07:30:26.693Z,5
2018-12-12T07:40:39.367Z,5
2018-12-12T07:50:46.045Z,5
2018-12-12T08:00:54.201Z,3
2018-12-12T08:11:02.184Z,3
2018-12-12T08:21:07.569Z,6
2018-12-12T08:31:15.270Z,5
2018-12-12T08:41:25.115Z,3
2018-12-12T08:51:33.637Z,4
2018-12-12T08:59:50.179Z,3
2018-12-12T09:09:59.885Z,5
2018-12-12T09:20:06.705Z,4
2018-12-12T09:30:15.261Z,6
2018-12-12T09:40:23.361Z,4
2018-12-12T09:50:28.527Z,4
2018-12-12T09:51:41.748Z,4
2018-12-12T10:01:47.814Z,5
2018-12-12T10:11:54.573Z,7
2018-12-12T10:21:59.815Z,3
2018-12-12T10:32:09.397Z,5
2018-12-12T10:42:17.807Z,5
2018-12-12T10:52:24.236Z,3
2018-12-12T10:58:42.484Z,5
2018-12-12T11:08:54.799Z,3
2018-12-12T11:19:03.722Z,4
2018-12-12T11:29:12.135Z,2
2018-12-12T11:39:18.400Z,4
2018-12-12T11:49:26.078Z,5
2018-12-12T12:01:15.008Z,4
2018-12-12T12:02:24.074Z,4
2018-12-12T12:04:37.495Z,6
2018-12-12T12:14:43.251Z,6
2018-12-12T12:24:51.619Z,5
2018-12-12T12:33:11.453Z,6
2018-12-12T12:43:17.616Z,6
2018-12-12T12:53:26.427Z,4
2018-12-12T13:02:45.120Z,4
2018-12-12T13:09:00.623Z,10
2018-12-12T13:15:20.817Z,10
2018-12-12T13:25:30.082Z,14
2018-12-12T13:35:39.058Z,7
2018-12-12T13:45:42.838Z,8
2018-12-12T13:47:56.478Z,12
2018-12-12T13:58:03.195Z,10
2018-12-12T14:01:17.947Z,8
2018-12-12T14:11:29.023Z,9
2018-12-12T14:20:49.156Z,9
2018-12-12T14:30:54.993Z,9
2018-12-12T14:33:26.001Z,11
2018-12-12T14:43:29.901Z,10
2018-12-12T14:53:37.096Z,11
2018-12-12T15:00:55.024Z,13
2018-12-12T15:11:03.806Z,16
2018-12-12T15:21:11.154Z,14
2018-12-12T15:40:42.561Z,17
2018-12-12T15:50:45.136Z,21
2018-12-12T16:00:51.949Z,19
2018-12-12T16:04:12.235Z,31
2018-12-12T16:14:15.717Z,27
2018-12-12T16:17:35.681Z,32
2018-12-12T16:23:50.602Z,24
2018-12-12T16:34:37.008Z,34
2018-12-12T16:37:24.774Z,35
2018-12-12T16:47:30.406Z,21
2018-12-12T16:57:37.393Z,24
2018-12-12T17:04:54.319Z,22
2018-12-12T17:15:03.919Z,19
2018-12-12T17:25:09.803Z,27
2018-12-12T17:35:20.000Z,23
2018-12-12T17:45:26.338Z,18
2018-12-12T17:55:34.051Z,22
2018-12-12T18:05:57.205Z,18
2018-12-12T18:16:01.326Z,24
2018-12-12T18:26:09.058Z,20
2018-12-12T18:36:17.886Z,11
2018-12-12T18:42:35.751Z,11
2018-12-12T18:52:40.232Z,11
2018-12-12T19:03:02.319Z,12
2018-12-12T19:13:07.533Z,11
2018-12-12T19:23:14.765Z,11
2018-12-12T19:33:24.224Z,13
2018-12-12T19:43:30.439Z,10
2018-12-12T19:53:38.452Z,14
2018-12-12T20:03:44.415Z,10
2018-12-12T20:13:52.620Z,9
2018-12-12T20:24:01.436Z,13
2018-12-12T20:34:09.730Z,14
2018-12-12T20:44:17.566Z,8
2018-12-12T20:54:26.814Z,12
2018-12-12T21:04:33.369Z,12
2018-12-12T21:14:40.781Z,12
2018-12-12T21:24:48.963Z,8
2018-12-12T21:34:57.502Z,8
2018-12-12T21:45:03.810Z,7
2018-12-12T21:55:11.674Z,8
2018-12-12T22:05:19.239Z,10
2018-12-12T22:15:25.265Z,10
2018-12-12T22:25:32.885Z,6
2018-12-12T22:35:38.297Z,8
2018-12-12T22:36:51.735Z,9
2018-12-12T22:46:59.783Z,7
2018-12-12T22:57:08.034Z,10
2018-12-12T23:07:14.537Z,7
2018-12-12T23:17:23.345Z,10
2018-12-12T23:27:31.250Z,5
2018-12-12T23:37:38.958Z,7
2018-12-12T23:47:45.701Z,4
2018-12-12T23:57:51.640Z,6
